createdAt,value
2024-01-07T00:02:05.760Z,17.50
2024-01-07T00:04:33.355Z,15.93
2024-01-07T00:07:00.922Z,18.00
2024-01-07T00:09:28.492Z,16.57
2024-01-07T00:11:56.087Z,16.53
2024-01-07T00:14:23.646Z,14.30
2024-01-07T00:16:51.222Z,14.03
2024-01-07T00:19:19.688Z,13.00
2024-01-07T00:21:47.951Z,13.90
2024-01-07T00:24:15.505Z,15.50
2024-01-07T00:26:43.126Z,14.90
2024-01-07T00:29:10.710Z,16.33
2024-01-07T00:31:38.373Z,12.37
2024-01-07T00:34:06.003Z,15.10
2024-01-07T00:36:33.492Z,16.57
2024-01-07T00:39:01.043Z,15.43
2024-01-07T00:41:28.626Z,15.93
2024-01-07T00:43:56.235Z,17.67
2024-01-07T00:46:23.777Z,14.73
2024-01-07T00:48:51.397Z,14.02
2024-01-07T00:51:18.951Z,12.73
2024-01-07T00:53:46.515Z,11.00
2024-01-07T00:56:14.148Z,8.60
2024-01-07T00:58:41.753Z,12.27
2024-01-07T01:01:09.347Z,9.33
2024-01-07T01:03:36.978Z,8.83
2024-01-07T01:06:04.588Z,8.80
2024-01-07T01:08:32.854Z,8.38
2024-01-07T01:11:00.407Z,7.50
2024-01-07T01:13:28.759Z,6.27
2024-01-07T01:15:56.399Z,6.70
2024-01-07T01:18:24.055Z,8.40
2024-01-07T01:20:52.243Z,8.50
2024-01-07T01:23:19.830Z,7.03
2024-01-07T01:25:47.422Z,8.13
2024-01-07T01:28:15.785Z,9.15
2024-01-07T01:30:43.379Z,8.57
2024-01-07T01:33:11.012Z,8.37
2024-01-07T01:35:38.478Z,9.57
2024-01-07T01:38:06.816Z,9.33
2024-01-07T01:40:34.429Z,10.27
2024-01-07T01:43:02.037Z,8.57
2024-01-07T01:45:29.614Z,9.33
2024-01-07T01:47:57.222Z,9.23
2024-01-07T01:50:24.752Z,9.80
2024-01-07T01:52:53.085Z,10.63
2024-01-07T01:55:20.718Z,10.07
2024-01-07T01:57:48.363Z,9.50
2024-01-07T02:00:15.883Z,8.77
2024-01-07T02:02:43.511Z,9.43
2024-01-07T02:05:11.124Z,8.83
2024-01-07T02:07:38.627Z,9.90
2024-01-07T02:10:06.278Z,9.10
2024-01-07T02:12:34.606Z,9.03
2024-01-07T02:15:02.127Z,9.10
2024-01-07T02:17:29.772Z,9.40
2024-01-07T02:19:57.564Z,9.10
2024-01-07T02:22:25.670Z,8.67
2024-01-07T02:24:53.322Z,9.50
2024-01-07T02:27:21.586Z,10.13
2024-01-07T02:29:49.183Z,8.43
2024-01-07T02:32:16.763Z,9.27
2024-01-07T02:34:45.237Z,10.13
2024-01-07T02:37:12.724Z,9.67
2024-01-07T02:39:40.333Z,10.00
2024-01-07T02:42:07.926Z,9.38
2024-01-07T02:44:36.257Z,9.60
2024-01-07T02:47:03.860Z,8.53
2024-01-07T02:49:32.316Z,9.80
2024-01-07T02:51:59.837Z,9.60
2024-01-07T02:54:27.448Z,9.77
2024-01-07T02:56:54.973Z,8.43
2024-01-07T02:59:22.529Z,9.13
2024-01-07T03:01:50.299Z,8.93
2024-01-07T03:04:18.501Z,8.37
2024-01-07T03:06:46.142Z,10.07
2024-01-07T03:09:13.699Z,8.73
2024-01-07T03:11:43.941Z,7.73
2024-01-07T03:14:11.505Z,8.20
2024-01-07T03:16:39.110Z,8.77
2024-01-07T03:19:06.813Z,8.83
2024-01-07T03:21:34.372Z,7.77
2024-01-07T03:24:01.907Z,8.07
2024-01-07T03:26:29.439Z,7.73
2024-01-07T03:28:57.774Z,9.07
2024-01-07T03:31:25.521Z,8.43
2024-01-07T03:33:53.847Z,8.40
2024-01-07T03:36:21.261Z,8.33
2024-01-07T03:38:48.833Z,8.73
2024-01-07T03:41:19.342Z,9.67
2024-01-07T03:43:49.635Z,8.53
2024-01-07T03:46:17.145Z,9.20
2024-01-07T03:48:44.963Z,9.27
2024-01-07T03:51:12.271Z,9.63
2024-01-07T03:53:39.880Z,10.10
2024-01-07T03:56:08.184Z,9.40
2024-01-07T03:58:35.789Z,9.83
2024-01-07T04:01:03.465Z,9.53
2024-01-07T04:03:31.769Z,11.67
2024-01-07T04:05:59.305Z,10.40
2024-01-07T04:08:26.861Z,10.47
2024-01-07T04:10:55.203Z,11.13
2024-01-07T04:13:22.763Z,11.23
2024-01-07T04:15:50.410Z,11.47
2024-01-07T04:18:18.049Z,11.17
2024-01-07T04:20:45.556Z,10.50
2024-01-07T04:23:13.133Z,9.93
2024-01-07T04:25:40.689Z,9.70
2024-01-07T04:28:08.377Z,11.77
2024-01-07T04:30:38.624Z,11.32
2024-01-07T04:33:06.146Z,10.20
2024-01-07T04:35:33.716Z,10.00
2024-01-07T04:38:01.295Z,9.10
2024-01-07T04:40:28.867Z,10.88
2024-01-07T04:42:56.466Z,9.70
2024-01-07T04:45:24.037Z,9.17
2024-01-07T04:47:51.668Z,9.63
2024-01-07T04:50:19.956Z,9.03
2024-01-07T04:52:47.580Z,9.30
2024-01-07T04:55:15.235Z,9.07
2024-01-07T04:57:42.781Z,8.97
2024-01-07T05:00:10.417Z,7.77
2024-01-07T05:02:39.193Z,7.87
2024-01-07T05:05:06.766Z,8.53
2024-01-07T05:07:34.425Z,8.07
2024-01-07T05:10:01.945Z,7.87
2024-01-07T05:12:30.270Z,7.17
2024-01-07T05:14:57.851Z,8.10
2024-01-07T05:17:25.402Z,7.50
2024-01-07T05:19:53.121Z,8.93
2024-01-07T05:22:20.585Z,9.70
2024-01-07T05:24:48.201Z,8.37
2024-01-07T05:27:15.715Z,8.73
2024-01-07T05:29:43.310Z,9.50
2024-01-07T05:32:10.885Z,10.20
2024-01-07T05:34:39.239Z,7.80
2024-01-07T05:37:06.855Z,9.10
2024-01-07T05:39:34.433Z,8.60
2024-01-07T05:42:02.725Z,10.60
2024-01-07T05:44:30.471Z,8.60
2024-01-07T05:46:57.902Z,8.17
2024-01-07T05:49:25.699Z,9.23
2024-01-07T05:51:53.151Z,9.17
2024-01-07T05:54:20.672Z,7.97
2024-01-07T05:56:48.234Z,9.43
2024-01-07T05:59:15.840Z,8.47
2024-01-07T06:01:43.434Z,6.90
2024-01-07T06:04:11.158Z,8.30
2024-01-07T06:06:39.554Z,10.60
2024-01-07T06:09:06.937Z,9.90
2024-01-07T06:11:34.487Z,8.80
2024-01-07T06:14:02.145Z,7.00
2024-01-07T06:16:29.654Z,8.33
2024-01-07T06:18:57.332Z,8.07
2024-01-07T06:21:25.612Z,8.17
2024-01-07T06:23:53.128Z,7.10
2024-01-07T06:26:21.461Z,8.10
2024-01-07T06:28:49.072Z,7.70
2024-01-07T06:31:17.562Z,8.23
2024-01-07T06:33:45.083Z,8.60
2024-01-07T06:36:12.591Z,8.07
2024-01-07T06:38:40.162Z,7.33
2024-01-07T06:41:07.752Z,8.27
2024-01-07T06:43:35.356Z,9.07
2024-01-07T06:46:03.710Z,8.47
2024-01-07T06:48:31.308Z,9.37
2024-01-07T06:50:58.825Z,8.90
2024-01-07T06:53:26.412Z,8.17
2024-01-07T06:55:54.737Z,9.70
2024-01-07T06:58:22.317Z,11.67
2024-01-07T07:00:49.950Z,10.23
2024-01-07T07:03:17.499Z,10.73
2024-01-07T07:05:45.133Z,9.87
2024-01-07T07:08:12.635Z,11.73
2024-01-07T07:10:40.202Z,9.43
2024-01-07T07:13:07.957Z,11.73
2024-01-07T07:15:36.171Z,10.27
2024-01-07T07:18:03.783Z,9.97
2024-01-07T07:20:32.098Z,12.63
2024-01-07T07:22:59.658Z,10.50
2024-01-07T07:25:27.273Z,11.40
2024-01-07T07:27:54.890Z,12.80
2024-01-07T07:30:22.420Z,10.00
2024-01-07T07:32:50.073Z,11.10
2024-01-07T07:35:18.334Z,10.37
2024-01-07T07:37:45.903Z,10.30
2024-01-07T07:40:13.609Z,10.53
2024-01-07T07:42:41.170Z,10.00
2024-01-07T07:45:08.687Z,11.27
2024-01-07T07:47:36.307Z,10.33
2024-01-07T07:50:04.104Z,10.13
2024-01-07T07:52:32.206Z,10.50
2024-01-07T07:54:59.810Z,11.97
2024-01-07T07:57:27.404Z,9.30
2024-01-07T07:59:54.941Z,11.87
2024-01-07T08:02:23.283Z,11.05
2024-01-07T08:04:50.887Z,21.13
2024-01-07T08:07:18.460Z,10.23
2024-01-07T08:09:46.124Z,9.53
2024-01-07T08:12:13.611Z,10.23
2024-01-07T08:14:44.026Z,9.63
2024-01-07T08:17:11.578Z,10.63
2024-01-07T08:19:39.286Z,9.70
2024-01-07T08:22:06.820Z,11.40
2024-01-07T08:24:34.353Z,9.43
2024-01-07T08:27:01.903Z,8.20
2024-01-07T08:29:30.238Z,10.18
2024-01-07T08:31:57.868Z,9.53
2024-01-07T08:34:26.369Z,9.77
2024-01-07T08:36:53.853Z,11.17
2024-01-07T08:39:21.339Z,10.07
2024-01-07T08:41:48.977Z,9.97
2024-01-07T08:44:16.547Z,11.07
2024-01-07T08:46:44.094Z,11.35
2024-01-07T08:49:11.828Z,11.90
2024-01-07T08:51:39.294Z,11.50
2024-01-07T08:54:06.839Z,10.40
2024-01-07T08:56:34.450Z,10.73
2024-01-07T08:59:02.783Z,10.07
2024-01-07T09:01:30.485Z,12.30
2024-01-07T09:03:58.037Z,11.33
2024-01-07T09:06:26.295Z,10.20
2024-01-07T09:08:53.866Z,12.13
2024-01-07T09:11:21.439Z,8.10
2024-01-07T09:13:49.012Z,9.57
2024-01-07T09:16:17.428Z,9.85
2024-01-07T09:18:47.742Z,9.83
2024-01-07T09:21:15.156Z,9.87
2024-01-07T09:23:42.708Z,9.77
2024-01-07T09:26:10.352Z,9.10
2024-01-07T09:28:37.920Z,10.17
2024-01-07T09:31:05.712Z,9.37
2024-01-07T09:33:33.248Z,9.33
2024-01-07T09:36:06.589Z,9.82
2024-01-07T09:38:28.236Z,10.03
2024-01-07T09:40:55.838Z,9.75
2024-01-07T09:43:24.843Z,7.63
2024-01-07T09:45:51.000Z,9.38
2024-01-07T09:48:18.643Z,9.23
2024-01-07T09:50:47.142Z,9.13
2024-01-07T09:53:13.733Z,8.50
2024-01-07T09:55:59.883Z,7.60
2024-01-07T09:58:28.239Z,7.33
2024-01-07T10:00:56.628Z,6.13
2024-01-07T10:03:24.160Z,7.20
2024-01-07T10:05:51.764Z,7.03
2024-01-07T10:08:19.298Z,6.50
2024-01-07T10:10:47.659Z,8.70
2024-01-07T10:13:15.289Z,7.93
2024-01-07T10:15:42.868Z,8.55
2024-01-07T10:18:10.498Z,7.07
2024-01-07T10:20:39.734Z,7.50
2024-01-07T10:23:05.504Z,6.63
2024-01-07T10:25:33.106Z,5.97
2024-01-07T10:28:00.703Z,6.50
2024-01-07T10:30:28.238Z,7.53
2024-01-07T10:33:01.756Z,7.13
2024-01-07T10:35:35.273Z,5.63
2024-01-07T10:38:03.606Z,8.30
2024-01-07T10:40:31.209Z,4.60
2024-01-07T10:42:59.581Z,5.20
2024-01-07T10:45:27.123Z,5.30
2024-01-07T10:47:54.804Z,5.63
2024-01-07T10:50:23.080Z,4.87
2024-01-07T10:52:51.466Z,5.40
2024-01-07T10:55:19.153Z,5.07
2024-01-07T10:57:49.427Z,6.00
2024-01-07T11:00:19.664Z,5.03
2024-01-07T11:02:47.141Z,5.43
2024-01-07T11:05:17.745Z,5.03
2024-01-07T11:07:48.904Z,4.47
2024-01-07T11:10:22.070Z,4.30
2024-01-07T11:12:55.409Z,4.53
2024-01-07T11:15:53.607Z,3.97
2024-01-07T11:18:21.274Z,3.83
2024-01-07T11:20:48.754Z,3.17
2024-01-07T11:23:34.689Z,3.47
2024-01-07T11:26:03.023Z,3.23
2024-01-07T11:28:45.928Z,4.07
2024-01-07T11:31:13.703Z,3.65
2024-01-07T11:33:41.198Z,3.03
2024-01-07T11:36:08.728Z,3.77
2024-01-07T11:38:36.330Z,3.70
2024-01-07T11:41:03.854Z,4.57
2024-01-07T11:43:31.456Z,4.37
2024-01-07T11:45:59.068Z,3.72
2024-01-07T11:48:26.788Z,3.80
2024-01-07T11:50:56.563Z,4.43
2024-01-07T11:53:22.567Z,4.33
2024-01-07T11:55:50.193Z,4.43
2024-01-07T11:58:17.767Z,3.87
2024-01-07T12:00:45.383Z,4.40
2024-01-07T12:03:12.960Z,4.40
2024-01-07T12:05:43.549Z,4.73
2024-01-07T12:08:08.110Z,5.87
2024-01-07T12:10:35.658Z,5.20
2024-01-07T12:13:03.258Z,5.23
2024-01-07T12:15:31.751Z,5.27
2024-01-07T12:17:59.439Z,6.03
2024-01-07T12:20:26.897Z,5.43
2024-01-07T12:22:54.456Z,6.03
2024-01-07T12:25:22.824Z,5.60
2024-01-07T12:27:50.415Z,5.80
2024-01-07T12:30:18.008Z,6.60
2024-01-07T12:32:45.558Z,6.47
2024-01-07T12:35:13.212Z,7.50
2024-01-07T12:37:40.665Z,8.40
2024-01-07T12:40:08.496Z,6.87
2024-01-07T12:42:36.102Z,6.90
2024-01-07T12:45:03.638Z,6.17
2024-01-07T12:47:31.740Z,5.80
2024-01-07T12:50:00.192Z,5.20
2024-01-07T12:52:27.762Z,7.83
2024-01-07T12:54:55.332Z,5.40
2024-01-07T12:57:24.894Z,4.67
2024-01-07T12:59:50.426Z,6.43
2024-01-07T13:02:18.840Z,5.50
2024-01-07T13:04:46.397Z,5.07
2024-01-07T13:07:14.115Z,4.77
2024-01-07T13:09:41.520Z,4.97
2024-01-07T13:12:09.132Z,4.90
2024-01-07T13:14:36.717Z,4.57
2024-01-07T13:17:05.113Z,5.10
2024-01-07T13:19:32.784Z,5.37
2024-01-07T13:22:00.345Z,4.40
2024-01-07T13:24:28.657Z,5.57
2024-01-07T13:26:56.304Z,4.30
2024-01-07T13:29:23.869Z,4.47
2024-01-07T13:31:51.523Z,5.20
2024-01-07T13:34:19.217Z,5.27
2024-01-07T13:36:46.691Z,4.83
2024-01-07T13:39:14.228Z,5.43
2024-01-07T13:41:41.800Z,4.00
2024-01-07T13:44:09.407Z,3.90
2024-01-07T13:46:36.992Z,4.20
2024-01-07T13:49:04.730Z,4.07
2024-01-07T13:51:32.223Z,5.17
2024-01-07T13:54:00.496Z,4.80
2024-01-07T13:56:28.156Z,4.97
2024-01-07T13:58:55.665Z,4.07
2024-01-07T14:01:24.069Z,4.23
2024-01-07T14:03:51.609Z,3.97
2024-01-07T14:06:19.142Z,4.20
2024-01-07T14:08:46.716Z,4.70
2024-01-07T14:11:14.317Z,4.97
2024-01-07T14:13:41.892Z,4.47
2024-01-07T14:16:09.523Z,5.10
2024-01-07T14:18:37.191Z,5.93
2024-01-07T14:21:04.719Z,6.43
2024-01-07T14:23:32.240Z,6.23
2024-01-07T14:25:59.819Z,4.43
2024-01-07T14:28:27.402Z,5.03
2024-01-07T14:30:55.077Z,5.73
2024-01-07T14:33:23.430Z,5.30
2024-01-07T14:35:50.925Z,5.63
2024-01-07T14:38:19.260Z,5.47
2024-01-07T14:40:46.876Z,6.77
2024-01-07T14:43:14.501Z,6.67
2024-01-07T14:45:42.064Z,8.23
2024-01-07T14:48:09.837Z,6.40
2024-01-07T14:50:41.806Z,7.17
2024-01-07T14:53:05.575Z,8.23
2024-01-07T14:55:33.195Z,7.50
2024-01-07T14:58:00.785Z,5.83
2024-01-07T15:00:28.287Z,6.20
2024-01-07T15:02:55.868Z,6.70
2024-01-07T15:05:23.596Z,6.70
2024-01-07T15:07:51.051Z,11.23
2024-01-07T15:10:18.869Z,7.80
2024-01-07T15:12:51.591Z,8.80
2024-01-07T15:15:13.781Z,7.43
2024-01-07T15:17:41.495Z,7.27
2024-01-07T15:20:09.050Z,9.70
2024-01-07T15:22:36.574Z,7.90
2024-01-07T15:25:04.271Z,7.63
2024-01-07T15:27:31.817Z,7.63
2024-01-07T15:29:59.388Z,9.00
2024-01-07T15:32:27.790Z,9.45
2024-01-07T15:34:56.168Z,8.40
2024-01-07T15:37:24.318Z,9.77
2024-01-07T15:39:51.314Z,9.03
2024-01-07T15:42:18.844Z,9.10
2024-01-07T15:44:46.412Z,11.83
2024-01-07T15:47:13.993Z,10.20
2024-01-07T15:49:41.665Z,8.73
2024-01-07T15:52:09.284Z,10.20
2024-01-07T15:54:36.856Z,9.37
2024-01-07T15:57:04.454Z,9.50
2024-01-07T15:59:31.920Z,9.57
2024-01-07T16:01:59.574Z,10.23
2024-01-07T16:04:27.133Z,9.13
2024-01-07T16:06:54.704Z,10.83
2024-01-07T16:09:23.044Z,10.23
2024-01-07T16:11:50.635Z,12.23
2024-01-07T16:14:18.182Z,10.40
2024-01-07T16:16:45.777Z,13.03
2024-01-07T16:19:13.410Z,11.97
2024-01-07T16:21:41.403Z,11.73
2024-01-07T16:24:08.488Z,12.40
2024-01-07T16:26:36.056Z,11.43
2024-01-07T16:29:03.635Z,10.63
2024-01-07T16:31:31.306Z,10.97
2024-01-07T16:33:58.924Z,11.47
2024-01-07T16:36:26.349Z,12.77
2024-01-07T16:38:53.937Z,12.07
2024-01-07T16:41:22.304Z,15.33
2024-01-07T16:43:50.544Z,12.23
2024-01-07T16:46:18.326Z,12.33
2024-01-07T16:51:14.251Z,13.20
2024-01-07T16:53:41.820Z,13.67
2024-01-07T16:56:09.404Z,14.50
2024-01-07T16:58:36.924Z,13.32
2024-01-07T17:01:04.660Z,11.27
2024-01-07T17:03:32.182Z,11.53
2024-01-07T17:06:00.518Z,11.07
2024-01-07T17:08:28.081Z,12.83
2024-01-07T17:10:55.632Z,12.23
2024-01-07T17:13:23.183Z,13.73
2024-01-07T17:15:50.785Z,16.20
2024-01-07T17:18:18.440Z,18.20
2024-01-07T17:20:46.015Z,14.60
2024-01-07T17:23:14.329Z,12.97
2024-01-07T17:25:41.908Z,14.60
2024-01-07T17:28:09.427Z,17.00
2024-01-07T17:30:37.135Z,16.20
2024-01-07T17:33:04.779Z,16.35
2024-01-07T17:35:32.293Z,16.17
2024-01-07T17:37:59.868Z,15.17
2024-01-07T17:40:27.395Z,13.50
2024-01-07T17:42:54.985Z,12.63
2024-01-07T17:45:22.609Z,16.23
2024-01-07T17:47:50.303Z,12.27
2024-01-07T17:50:17.882Z,14.13
2024-01-07T17:52:45.434Z,14.23
2024-01-07T17:55:12.991Z,13.23
2024-01-07T17:57:40.581Z,14.70
2024-01-07T18:00:08.822Z,14.70
2024-01-07T18:02:36.612Z,11.30
2024-01-07T18:05:05.075Z,13.00
2024-01-07T18:07:32.562Z,11.75
2024-01-07T18:10:00.157Z,11.60
2024-01-07T18:12:27.712Z,12.13
2024-01-07T18:14:55.878Z,12.17
2024-01-07T18:17:23.079Z,10.90
2024-01-07T18:19:50.544Z,8.57
2024-01-07T18:22:18.168Z,7.60
2024-01-07T18:24:45.769Z,9.23
2024-01-07T18:27:13.306Z,9.90
2024-01-07T18:29:40.950Z,11.27
2024-01-07T18:32:08.478Z,10.10
2024-01-07T18:34:36.022Z,11.80
2024-01-07T18:37:03.637Z,9.50
2024-01-07T18:39:31.188Z,8.00
2024-01-07T18:41:58.762Z,7.70
2024-01-07T18:44:26.397Z,9.17
2024-01-07T18:46:53.931Z,8.20
2024-01-07T18:49:21.635Z,10.48
2024-01-07T18:51:49.060Z,8.80
2024-01-07T18:54:17.416Z,8.57
2024-01-07T18:56:45.013Z,10.15
2024-01-07T18:59:12.625Z,9.35
2024-01-07T19:01:40.159Z,8.90
2024-01-07T19:04:07.719Z,11.23
2024-01-07T19:06:35.368Z,9.63
2024-01-07T19:09:02.898Z,7.60
2024-01-07T19:11:30.485Z,10.55
2024-01-07T19:13:58.859Z,9.93
2024-01-07T19:16:26.408Z,8.47
2024-01-07T19:18:54.762Z,8.70
2024-01-07T19:21:22.371Z,9.40
2024-01-07T19:23:49.916Z,9.60
2024-01-07T19:26:17.529Z,6.50
2024-01-07T19:28:45.831Z,9.20
2024-01-07T19:31:13.409Z,8.53
2024-01-07T19:33:41.000Z,6.77
2024-01-07T19:36:08.481Z,10.43
2024-01-07T19:38:36.065Z,8.80
2024-01-07T19:41:03.744Z,9.30
2024-01-07T19:43:31.249Z,6.93
2024-01-07T19:46:02.088Z,7.13
2024-01-07T19:48:29.604Z,7.93
2024-01-07T19:50:57.134Z,7.22
2024-01-07T19:53:30.406Z,5.17
2024-01-07T19:55:53.139Z,6.13
2024-01-07T19:58:20.668Z,5.37
2024-01-07T20:00:48.300Z,5.27
2024-01-07T20:03:15.845Z,5.03
2024-01-07T20:05:43.478Z,5.93
2024-01-07T20:08:11.037Z,4.87
2024-01-07T20:10:39.990Z,3.97
2024-01-07T20:13:06.157Z,5.87
2024-01-07T20:15:33.792Z,5.57
2024-01-07T20:18:01.405Z,5.10
2024-01-07T20:20:29.027Z,5.03
2024-01-07T20:22:56.452Z,4.60
2024-01-07T20:25:24.015Z,4.63
2024-01-07T20:27:51.586Z,5.10
2024-01-07T20:30:19.971Z,4.50
2024-01-07T20:32:47.531Z,5.20
2024-01-07T20:35:15.111Z,4.73
2024-01-07T20:37:43.564Z,4.73
2024-01-07T20:40:10.998Z,4.43
2024-01-07T20:42:41.747Z,5.67
2024-01-07T20:45:06.341Z,3.90
2024-01-07T20:47:34.013Z,4.70
2024-01-07T20:50:02.365Z,5.45
2024-01-07T20:52:29.869Z,3.53
2024-01-07T20:54:58.187Z,5.53
2024-01-07T20:57:25.768Z,5.93
2024-01-07T20:59:53.347Z,4.20
2024-01-07T21:02:21.051Z,4.50
2024-01-07T21:04:49.485Z,3.47
2024-01-07T21:07:16.801Z,5.53
2024-01-07T21:09:44.375Z,5.47
2024-01-07T21:12:11.977Z,3.70
2024-01-07T21:14:40.326Z,3.67
2024-01-07T21:17:07.978Z,4.67
2024-01-07T21:19:35.550Z,4.33
2024-01-07T21:22:03.123Z,3.83
2024-01-07T21:24:30.683Z,3.87
2024-01-07T21:26:59.046Z,3.27
2024-01-07T21:29:26.775Z,2.80
2024-01-07T21:31:54.212Z,3.43
2024-01-07T21:34:21.972Z,4.40
2024-01-07T21:36:49.374Z,3.43
2024-01-07T21:39:16.920Z,3.00
2024-01-07T21:41:44.598Z,4.60
2024-01-07T21:44:12.160Z,2.23
2024-01-07T21:46:48.682Z,2.33
2024-01-07T21:49:16.347Z,2.77
2024-01-07T21:51:43.778Z,3.28
2024-01-07T21:54:11.403Z,2.47
2024-01-07T21:56:39.095Z,2.90
2024-01-07T21:59:06.580Z,2.03
2024-01-07T22:01:34.114Z,2.90
2024-01-07T22:04:01.668Z,2.10
2024-01-07T22:06:29.291Z,2.07
2024-01-07T22:08:56.849Z,2.77
2024-01-07T22:11:24.423Z,3.53
2024-01-07T22:13:52.063Z,2.37
2024-01-07T22:16:19.544Z,3.27
2024-01-07T22:18:47.292Z,2.20
2024-01-07T22:21:17.646Z,3.70
2024-01-07T22:23:45.223Z,1.57
2024-01-07T22:26:12.860Z,2.63
2024-01-07T22:28:44.139Z,3.93
2024-01-07T22:31:11.637Z,3.30
2024-01-07T22:33:39.327Z,3.07
2024-01-07T22:36:06.789Z,1.67
2024-01-07T22:38:34.525Z,2.37
2024-01-07T22:41:01.955Z,2.33
2024-01-07T22:43:29.523Z,2.77
2024-01-07T22:45:57.113Z,2.07
2024-01-07T22:48:24.770Z,3.57
2024-01-07T22:50:52.342Z,2.93
2024-01-07T22:53:19.938Z,2.73
2024-01-07T22:55:47.483Z,3.03
2024-01-07T22:58:15.013Z,2.30
2024-01-07T23:00:42.656Z,2.73
2024-01-07T23:03:10.251Z,1.90
2024-01-07T23:05:39.813Z,3.40
2024-01-07T23:08:05.428Z,3.43
2024-01-07T23:10:32.941Z,3.00
2024-01-07T23:13:00.505Z,3.97
2024-01-07T23:15:28.090Z,3.17
2024-01-07T23:17:55.752Z,4.07
2024-01-07T23:20:24.072Z,2.40
2024-01-07T23:22:51.633Z,4.03
2024-01-07T23:25:19.946Z,2.07
2024-01-07T23:27:47.501Z,2.13
2024-01-07T23:30:15.218Z,3.83
2024-01-07T23:32:42.693Z,2.60
2024-01-07T23:35:10.332Z,3.70
2024-01-07T23:37:37.851Z,3.37
2024-01-07T23:40:05.487Z,2.50
2024-01-07T23:42:33.056Z,3.60
2024-01-07T23:45:00.657Z,3.30
2024-01-07T23:47:28.379Z,3.73
2024-01-07T23:49:55.910Z,2.33
2024-01-07T23:52:23.477Z,2.50
2024-01-07T23:54:51.005Z,2.33
2024-01-07T23:57:18.566Z,3.17
2024-01-07T23:59:46.163Z,2.70
